Time;durP1;ratioP1;P1;durP2;ratioP2;P2;SDS_P1;SDS_P2;PMS_P1;PMS_P2;Temp;Humidity;BMP_temperature;BMP_pressure;BME280_temperature;BME280_humidity;BME280_pressure;Samples;Min_cycle;Max_cycle;Signal;HPM_P1;HPM_P2
2022/12/14 00:00:51;;;;;;;35.17;14.23;;;;;;;6.14;43.19;100622.72;5110761;27;20035;-69
2022/12/14 00:03:17;;;;;;;31.73;14.73;;;;;;;6.87;41.75;100620.34;5113305;27;20292;-69
2022/12/14 00:05:43;;;;;;;35.53;15.80;;;;;;;6.06;42.61;100614.03;5116336;27;20031;-69
2022/12/14 00:08:10;;;;;;;34.17;15.27;;;;;;;6.18;43.37;100619.28;5134365;27;20386;-69
2022/12/14 00:10:37;;;;;;;32.57;14.90;;;;;;;6.10;43.30;100613.19;5114938;27;20105;-70
2022/12/14 00:13:04;;;;;;;31.70;14.50;;;;;;;6.09;43.09;100608.84;5114863;27;20291;-69
2022/12/14 00:15:29;;;;;;;33.10;14.73;;;;;;;6.74;42.25;100619.44;5115959;27;20051;-69
2022/12/14 00:17:55;;;;;;;34.40;15.23;;;;;;;6.19;43.04;100614.94;5116507;27;20260;-69
2022/12/14 00:20:20;;;;;;;32.57;14.97;;;;;;;5.78;43.14;100606.03;5133741;27;20031;-69
2022/12/14 00:22:46;;;;;;;31.97;14.17;;;;;;;5.73;44.62;100611.22;5113665;27;20023;-69
2022/12/14 00:25:11;;;;;;;31.90;14.50;;;;;;;6.51;43.18;100591.72;5115829;27;20368;-69
2022/12/14 00:27:44;;;;;;;38.13;15.23;;;;;;;6.62;41.81;100587.41;5116693;27;20042;-69
2022/12/14 00:30:15;;;;;;;34.87;14.47;;;;;;;6.21;43.11;100572.56;5115744;27;20035;-69
2022/12/14 00:32:41;;;;;;;33.10;14.70;;;;;;;5.95;43.77;100575.88;5114968;27;20775;-69
2022/12/14 00:35:11;;;;;;;32.80;14.87;;;;;;;5.63;44.63;100577.41;5115312;27;20292;-69
2022/12/14 00:37:37;;;;;;;32.77;14.63;;;;;;;6.33;42.89;100573.47;5133560;27;20035;-69
2022/12/14 00:40:05;;;;;;;35.80;15.07;;;;;;;6.25;42.55;100574.31;5114573;27;20292;-69
2022/12/14 00:42:30;;;;;;;33.53;15.57;;;;;;;5.75;43.70;100567.13;5132664;27;20832;-70
2022/12/14 00:44:55;;;;;;;35.17;15.80;;;;;;;5.95;42.95;100570.69;5116268;27;20277;-69
2022/12/14 00:47:21;;;;;;;31.03;14.10;;;;;;;5.97;43.31;100567.25;5115716;27;20042;-70
2022/12/14 00:49:46;;;;;;;35.23;15.27;;;;;;;5.86;43.01;100564.59;5115435;27;20455;-69
2022/12/14 00:52:12;;;;;;;30.80;14.43;;;;;;;6.10;42.83;100558.69;5113040;27;20031;-69
2022/12/14 00:54:37;;;;;;;32.50;15.73;;;;;;;6.77;42.06;100551.91;5134537;27;20102;-69
2022/12/14 00:57:02;;;;;;;32.07;14.43;;;;;;;5.63;44.41;100559.25;5116113;27;20031;-70
2022/12/14 00:59:28;;;;;;;35.97;15.63;;;;;;;5.65;43.54;100553.22;5115411;27;20038;-69
2022/12/14 01:01:53;;;;;;;31.27;13.13;;;;;;;5.79;42.81;100537.75;5114005;27;20486;-70
2022/12/14 01:04:21;;;;;;;28.97;13.10;;;;;;;6.04;42.63;100540.47;5115544;27;20084;-69
2022/12/14 01:06:50;;;;;;;29.40;13.57;;;;;;;6.19;42.19;100537.94;5132370;27;20026;-69
2022/12/14 01:09:16;;;;;;;26.27;12.67;;;;;;;5.55;42.79;100534.16;5130917;27;20034;-69
2022/12/14 01:11:43;;;;;;;31.90;13.83;;;;;;;5.94;42.66;100532.63;5132127;27;20292;-69
2022/12/14 01:14:09;;;;;;;25.30;12.17;;;;;;;6.00;42.97;100530.94;5114569;27;20292;-69
2022/12/14 01:16:34;;;;;;;28.50;12.40;;;;;;;5.64;42.65;100525.56;5114796;27;20787;-69
2022/12/14 01:19:00;;;;;;;33.17;14.70;;;;;;;5.79;42.56;100532.56;5114681;27;20292;-69
2022/12/14 01:21:27;;;;;;;27.00;12.87;;;;;;;6.14;42.25;100534.47;5111847;27;20106;-69
2022/12/14 01:23:57;;;;;;;27.77;12.67;;;;;;;6.38;41.27;100527.63;5133258;27;20027;-69
2022/12/14 01:26:24;;;;;;;29.80;12.20;;;;;;;6.04;42.44;100524.91;5134037;27;20049;-69
2022/12/14 01:28:51;;;;;;;31.77;13.20;;;;;;;5.65;43.20;100526.44;5114752;27;20339;-69
2022/12/14 01:31:20;;;;;;;24.83;11.67;;;;;;;5.72;42.42;100529.06;5112551;27;20768;-69
2022/12/14 01:33:46;;;;;;;29.40;13.03;;;;;;;5.55;42.21;100523.78;5115310;27;20272;-69
2022/12/14 01:36:15;;;;;;;28.23;11.07;;;;;;;5.82;41.94;100524.78;5112038;27;20099;-69
2022/12/14 01:38:40;;;;;;;24.33;11.63;;;;;;;5.92;41.74;100529.16;5115075;27;20668;-69
2022/12/14 01:41:07;;;;;;;26.73;11.83;;;;;;;6.22;41.70;100527.59;5114251;27;20049;-69
2022/12/14 01:43:50;;;;;;;23.90;11.30;;;;;;;6.61;40.75;100538.91;5130251;27;20035;-69
2022/12/14 01:46:39;;;;;;;25.47;11.93;;;;;;;6.26;40.87;100526.72;5114939;27;20093;-68
2022/12/14 01:49:12;;;;;;;26.80;11.77;;;;;;;5.67;41.69;100537.69;5113516;27;20368;-69
2022/12/14 01:51:38;;;;;;;;;;;;;;;6.04;42.00;100533.56;5129486;27;20288;-69
2022/12/14 01:54:08;;;;;;;27.60;11.87;;;;;;;6.56;41.20;100538.03;5114754;27;19914;-68
2022/12/14 01:56:38;;;;;;;24.03;11.53;;;;;;;6.68;41.15;100536.34;5111705;27;20323;-69
2022/12/14 01:59:09;;;;;;;27.93;12.33;;;;;;;6.58;40.89;100531.13;5133446;27;20299;-69
2022/12/14 02:01:35;;;;;;;26.10;11.63;;;;;;;6.22;40.89;100522.41;5112851;27;20300;-69
2022/12/14 02:04:01;;;;;;;25.87;11.90;;;;;;;6.42;40.89;100525.03;5132454;27;20288;-69
2022/12/14 02:06:35;;;;;;;28.43;12.30;;;;;;;6.50;40.90;100527.66;5132163;27;20555;-69
2022/12/14 02:09:03;;;;;;;24.70;11.70;;;;;;;6.31;40.62;100520.69;5114785;27;20613;-69
2022/12/14 02:11:47;;;;;;;22.87;10.63;;;;;;;6.45;40.65;100518.97;5112415;27;20019;-70
2022/12/14 02:14:13;;;;;;;25.57;10.77;;;;;;;5.58;41.31;100523.81;5113782;27;20337;-69
2022/12/14 02:16:39;;;;;;;29.00;12.53;;;;;;;5.80;41.81;100526.53;5112422;27;20367;-69
2022/12/14 02:19:05;;;;;;;25.83;11.60;;;;;;;6.10;41.14;100522.34;5112920;27;20035;-69
2022/12/14 02:21:54;;;;;;;26.90;11.60;;;;;;;6.36;40.84;100537.13;5113617;27;20284;-69
2022/12/14 02:24:35;;;;;;;22.40;10.67;;;;;;;6.28;41.11;100517.19;5112709;28;20053;-71
2022/12/14 02:27:13;;;;;;;24.57;11.87;;;;;;;6.56;40.56;100525.03;5113426;27;20874;-71
2022/12/14 02:29:44;;;;;;;25.33;10.20;;;;;;;6.13;41.87;100518.88;5114294;27;20312;-71
2022/12/14 02:32:27;;;;;;;24.60;10.50;;;;;;;6.34;41.33;100525.88;5112346;27;20285;-71
2022/12/14 02:35:10;;;;;;;27.93;12.00;;;;;;;6.62;40.86;100526.78;5112206;27;20391;-70
2022/12/14 02:37:36;;;;;;;;;;;;;;;6.43;40.12;100515.53;5111653;27;20294;-70
2022/12/14 02:40:31;;;;;;;23.23;11.30;;;;;;;6.40;40.91;100515.50;5112631;27;20293;-71
2022/12/14 02:43:13;;;;;;;27.93;11.20;;;;;;;6.36;41.09;100518.94;5114062;27;20036;-70
2022/12/14 02:45:44;;;;;;;24.43;11.23;;;;;;;6.44;40.68;100517.22;5113311;27;20363;-69
2022/12/14 02:48:21;;;;;;;23.73;11.23;;;;;;;6.35;40.55;100520.69;5111075;27;20289;-68
2022/12/14 02:51:07;;;;;;;23.33;11.73;;;;;;;6.13;40.28;100521.47;5110508;27;20314;-68
2022/12/14 02:53:52;;;;;;;19.77;10.00;;;;;;;5.94;42.07;100522.25;5130719;27;20297;-71
2022/12/14 02:56:24;;;;;;;22.70;10.27;;;;;;;6.07;41.17;100517.13;5093292;28;20849;-71
2022/12/14 02:58:52;;;;;;;24.95;10.20;;;;;;;6.02;41.67;100513.69;5112515;27;20299;-70
2022/12/14 03:01:22;;;;;;;26.97;12.37;;;;;;;6.13;41.14;100517.16;5130063;27;20043;-71
2022/12/14 03:03:48;;;;;;;23.90;10.80;;;;;;;6.06;41.07;100510.22;5112823;27;20272;-68
2022/12/14 03:06:24;;;;;;;22.97;10.73;;;;;;;6.65;40.73;100515.53;5111573;28;20300;-68
2022/12/14 03:08:52;;;;;;;26.10;11.40;;;;;;;5.91;41.26;100501.47;5130668;27;20505;-68
2022/12/14 03:11:22;;;;;;;24.27;11.57;;;;;;;6.17;40.73;100495.56;5113380;28;20362;-69
2022/12/14 03:13:58;;;;;;;22.77;10.37;;;;;;;6.26;41.13;100489.50;5110537;28;20401;-69
2022/12/14 03:16:29;;;;;;;27.80;10.70;;;;;;;6.10;41.30;100486.03;5131996;28;20273;-68
2022/12/14 03:19:05;;;;;;;28.33;10.43;;;;;;;6.27;41.25;100484.31;5128637;27;20352;-68
2022/12/14 03:21:36;;;;;;;26.50;10.67;;;;;;;6.10;42.01;100473.91;5112123;27;20277;-68
2022/12/14 03:24:09;;;;;;;25.93;12.17;;;;;;;5.81;41.93;100478.97;5111076;28;20404;-68
2022/12/14 03:26:50;;;;;;;23.87;10.73;;;;;;;6.23;41.04;100464.41;5113670;28;20295;-68
2022/12/14 03:29:26;;;;;;;21.80;10.17;;;;;;;6.67;40.42;100462.72;5109344;28;20289;-71
2022/12/14 03:31:58;;;;;;;20.87;10.00;;;;;;;6.31;40.51;100458.38;5111225;27;20535;-70
2022/12/14 03:34:30;;;;;;;22.05;10.48;;;;;;;6.66;40.51;100454.94;5101797;27;20314;-71
2022/12/14 03:37:11;;;;;;;19.83;9.80;;;;;;;6.50;40.52;100457.53;5113610;27;20520;-69
2022/12/14 03:39:39;;;;;;;21.73;10.43;;;;;;;5.98;41.29;100455.72;5117479;27;20084;-71
2022/12/14 03:42:29;;;;;;;21.77;10.77;;;;;;;6.32;41.10;100454.91;5134612;27;20276;-71
2022/12/14 03:45:17;;;;;;;21.47;9.50;;;;;;;6.35;41.21;100452.34;5116580;27;20367;-68
2022/12/14 03:47:52;;;;;;;17.87;8.73;;;;;;;6.11;39.91;100456.59;5100356;27;20726;-69
2022/12/14 03:50:24;;;;;;;21.80;10.40;;;;;;;5.74;41.06;100451.25;5115965;27;20301;-71
2022/12/14 03:53:00;;;;;;;23.10;10.60;;;;;;;6.32;40.74;100448.00;5116443;27;20346;-68
2022/12/14 03:56:01;;;;;;;22.43;10.83;;;;;;;5.99;41.37;100451.38;5116374;27;20031;-68
2022/12/14 03:58:41;;;;;;;22.13;10.77;;;;;;;6.26;41.57;100447.97;5134869;27;20379;-68
2022/12/14 04:01:14;;;;;;;23.53;10.03;;;;;;;6.28;40.07;100449.72;5112585;28;20316;-71
2022/12/14 04:04:20;;;;;;;20.70;9.73;;;;;;;5.93;41.02;100442.69;5112555;28;20289;-71
2022/12/14 04:07:22;;;;;;;21.03;9.03;;;;;;;5.86;41.06;100440.94;5034907;28;20036;-68
2022/12/14 04:09:57;;;;;;;21.50;10.10;;;;;;;6.15;40.83;100445.34;5115258;28;20281;-69
2022/12/14 04:21:15;;;;;;;20.40;9.03;;;;;;;6.45;41.08;100425.50;5114675;28;20372;-69
2022/12/14 04:26:37;;;;;;;15.93;8.67;;;;;;;6.43;41.04;100427.25;5114933;28;20774;-69
2022/12/14 04:32:00;;;;;;;18.93;9.13;;;;;;;6.07;40.16;100418.53;5112796;28;20524;-69
2022/12/14 04:34:28;;;;;;;19.97;9.27;;;;;;;6.26;39.64;100419.41;5111133;28;20832;-68
2022/12/14 04:36:57;;;;;;;18.03;8.33;;;;;;;6.24;39.81;100411.63;5112275;28;20835;-69
2022/12/14 04:39:33;;;;;;;20.30;8.80;;;;;;;6.04;39.62;100409.00;5112049;28;20261;-68
2022/12/14 04:42:01;;;;;;;21.20;9.97;;;;;;;6.19;39.81;100409.91;5112039;28;20285;-69
2022/12/14 04:44:34;;;;;;;20.67;9.70;;;;;;;5.98;39.67;100410.75;5109535;28;20289;-69
2022/12/14 04:47:03;;;;;;;17.67;9.37;;;;;;;5.85;40.21;100399.41;5110644;28;20376;-69
2022/12/14 04:49:38;;;;;;;20.77;9.07;;;;;;;5.64;40.91;100402.81;5111733;28;20265;-68
2022/12/14 04:52:11;;;;;;;24.53;9.40;;;;;;;5.97;39.74;100407.22;5112675;28;20288;-68
2022/12/14 04:54:41;;;;;;;;;;;;;;;5.95;39.99;100404.63;5111327;28;20296;-69
2022/12/14 04:57:20;;;;;;;17.93;9.03;;;;;;;6.23;39.97;100409.03;5103307;28;19993;-69
2022/12/14 04:59:46;;;;;;;23.03;9.80;;;;;;;5.58;39.99;100404.53;5109724;28;20038;-69
2022/12/14 05:02:33;;;;;;;20.93;9.17;;;;;;;5.79;40.28;100397.69;5112176;28;20334;-69
2022/12/14 05:05:23;;;;;;;22.40;9.67;;;;;;;5.48;40.28;100397.59;5097324;28;20296;-69
2022/12/14 05:08:08;;;;;;;19.57;9.77;;;;;;;4.85;41.40;100400.72;5109814;28;20970;-68
2022/12/14 05:10:45;;;;;;;20.97;9.77;;;;;;;5.42;40.53;100387.19;5094572;28;20328;-69
2022/12/14 05:13:40;;;;;;;19.63;9.20;;;;;;;5.84;40.77;100390.78;5092140;28;20646;-68
2022/12/14 05:16:06;;;;;;;20.30;9.70;;;;;;;5.93;40.13;100395.13;5091798;28;20273;-69
2022/12/14 05:18:35;;;;;;;22.70;9.47;;;;;;;6.12;40.33;100390.84;5094779;28;20292;-69
2022/12/14 05:21:01;;;;;;;23.53;10.77;;;;;;;5.18;41.25;100391.41;5108992;28;20878;-69
2022/12/14 05:23:26;;;;;;;22.33;10.33;;;;;;;5.74;40.54;100391.59;5111277;28;20281;-69
2022/12/14 05:25:52;;;;;;;24.40;11.17;;;;;;;5.08;42.38;100392.19;5113367;28;20038;-69
2022/12/14 05:28:17;;;;;;;24.23;10.23;;;;;;;4.73;42.50;100390.28;5110387;28;20505;-69
2022/12/14 05:30:42;;;;;;;21.33;10.07;;;;;;;5.17;42.13;100387.06;5110228;28;20076;-69
2022/12/14 05:33:17;;;;;;;22.57;9.93;;;;;;;5.04;41.78;100390.44;5111633;28;20031;-69
2022/12/14 05:35:42;;;;;;;23.87;10.70;;;;;;;5.24;42.39;100388.81;5112594;28;20031;-68
2022/12/14 05:38:08;;;;;;;25.10;9.97;;;;;;;5.47;41.43;100393.25;5108041;28;20304;-69
2022/12/14 05:40:34;;;;;;;22.80;10.77;;;;;;;5.30;41.75;100392.31;5111732;28;20114;-69
2022/12/14 05:43:07;;;;;;;23.50;10.70;;;;;;;5.14;42.51;100387.06;5111019;28;20716;-69
2022/12/14 05:45:33;;;;;;;21.70;10.37;;;;;;;5.09;41.45;100389.63;5110809;28;20057;-69
2022/12/14 05:47:58;;;;;;;25.57;11.07;;;;;;;5.08;41.64;100393.09;5110539;28;20803;-69
2022/12/14 05:50:24;;;;;;;23.70;10.80;;;;;;;5.21;41.27;100387.97;5109867;28;20028;-68
2022/12/14 05:52:54;;;;;;;24.73;10.77;;;;;;;4.82;41.62;100394.63;5109106;28;20118;-68
2022/12/14 05:55:20;;;;;;;35.93;14.67;;;;;;;4.46;42.42;100396.97;5111143;28;20411;-68
2022/12/14 05:57:45;;;;;;;53.47;21.60;;;;;;;5.06;41.55;100388.75;5110490;28;20298;-68
2022/12/14 06:00:11;;;;;;;40.33;16.37;;;;;;;4.59;41.85;100393.63;5109030;28;20035;-69
2022/12/14 06:02:36;;;;;;;31.40;13.83;;;;;;;4.45;44.21;100390.06;5129397;27;20035;-70
2022/12/14 06:05:02;;;;;;;35.57;15.97;;;;;;;4.65;43.34;100386.75;5133124;27;20458;-68
2022/12/14 06:07:27;;;;;;;43.77;18.97;;;;;;;4.70;43.34;100390.25;5110773;27;20029;-68
2022/12/14 06:09:52;;;;;;;36.87;14.67;;;;;;;4.50;43.13;100378.00;5112089;27;20481;-68
2022/12/14 06:12:18;;;;;;;30.07;13.27;;;;;;;4.79;42.92;100374.75;5113495;27;20035;-68
2022/12/14 06:14:43;;;;;;;30.00;12.93;;;;;;;4.56;43.12;100385.84;5114636;27;20104;-68
2022/12/14 06:17:09;;;;;;;34.67;14.30;;;;;;;4.27;43.06;100380.41;5112826;27;20087;-68
2022/12/14 06:19:34;;;;;;;39.77;16.67;;;;;;;4.24;44.23;100380.41;5112521;27;20027;-69
2022/12/14 06:22:00;;;;;;;34.83;15.30;;;;;;;4.63;42.72;100381.59;5113286;27;20027;-69
2022/12/14 06:24:25;;;;;;;33.00;14.37;;;;;;;4.36;44.69;100382.22;5113873;27;20034;-69
2022/12/14 06:26:51;;;;;;;32.03;13.77;;;;;;;4.42;43.38;100377.09;5113260;27;20251;-69
2022/12/14 06:29:19;;;;;;;29.47;13.70;;;;;;;4.64;42.80;100372.06;5112285;27;20023;-69
2022/12/14 06:31:45;;;;;;;30.50;14.83;;;;;;;4.28;43.24;100382.16;5112841;27;20026;-69
2022/12/14 06:34:11;;;;;;;28.60;13.23;;;;;;;4.14;43.73;100374.28;5132456;27;20695;-69
2022/12/14 06:36:38;;;;;;;31.47;14.10;;;;;;;4.38;43.28;100370.16;5128498;27;20320;-69
2022/12/14 06:39:07;;;;;;;29.87;14.57;;;;;;;4.26;42.52;100378.69;5131142;27;20053;-69
2022/12/14 06:41:33;;;;;;;31.33;13.77;;;;;;;3.65;44.23;100373.78;5112915;27;20292;-69
2022/12/14 06:44:04;;;;;;;30.13;14.50;;;;;;;4.15;42.95;100369.97;5113056;27;20839;-69
2022/12/14 06:46:30;;;;;;;30.27;13.23;;;;;;;3.95;43.42;100377.56;5112982;27;20533;-69
2022/12/14 06:48:56;;;;;;;26.27;13.33;;;;;;;3.97;43.19;100386.16;5112799;27;20289;-69
2022/12/14 06:51:22;;;;;;;32.43;14.47;;;;;;;4.05;43.88;100379.34;5111277;27;20030;-69
2022/12/14 06:53:56;;;;;;;29.13;13.17;;;;;;;3.81;43.81;100375.69;5104406;27;20817;-69
2022/12/14 06:56:23;;;;;;;27.03;12.67;;;;;;;3.92;43.00;100385.28;5111518;28;20804;-69
2022/12/14 06:58:49;;;;;;;31.03;13.47;;;;;;;4.14;43.25;100384.63;5112102;27;20288;-69
2022/12/14 07:01:16;;;;;;;35.27;14.93;;;;;;;3.79;43.39;100380.00;5129923;27;20396;-69
2022/12/14 07:03:46;;;;;;;28.90;13.90;;;;;;;3.76;43.05;100376.50;5112369;27;20448;-69
2022/12/14 07:06:11;;;;;;;31.07;13.40;;;;;;;4.15;42.81;100376.03;5107089;27;20285;-69
2022/12/14 07:08:37;;;;;;;29.40;13.50;;;;;;;3.45;43.70;100377.03;5112515;27;20436;-69
2022/12/14 07:11:05;;;;;;;24.43;12.03;;;;;;;4.04;43.37;100385.41;5112396;28;20034;-69
2022/12/14 07:13:31;;;;;;;28.97;13.37;;;;;;;3.90;43.16;100385.25;5113178;27;20273;-69
2022/12/14 07:15:58;;;;;;;26.40;13.03;;;;;;;3.97;42.34;100386.16;5112725;28;20284;-69
2022/12/14 07:18:24;;;;;;;32.60;13.33;;;;;;;4.03;42.68;100386.25;5129990;28;20023;-69
2022/12/14 07:21:10;;;;;;;27.67;12.80;;;;;;;3.89;44.00;100392.16;5111466;28;20287;-69
2022/12/14 07:23:37;;;;;;;26.23;12.50;;;;;;;3.76;43.73;100382.50;5129547;28;20699;-69
2022/12/14 07:26:09;;;;;;;30.07;12.53;;;;;;;3.75;44.06;100385.97;5112522;28;20280;-68
2022/12/14 07:28:37;;;;;;;26.92;12.13;;;;;;;3.72;43.55;100386.81;5110867;28;20310;-69
2022/12/14 07:31:04;;;;;;;29.77;12.80;;;;;;;3.79;42.56;100392.03;5112234;28;20076;-69
2022/12/14 07:33:30;;;;;;;26.97;11.97;;;;;;;3.45;43.04;100387.34;5130753;28;20301;-69
2022/12/14 07:36:10;;;;;;;27.57;12.10;;;;;;;3.69;42.75;100385.91;5126593;27;20310;-68
2022/12/14 07:38:37;;;;;;;23.17;12.00;;;;;;;3.27;43.33;100388.00;5110777;28;20118;-69
2022/12/14 07:41:23;;;;;;;23.20;10.33;;;;;;;3.55;43.19;100394.34;5129382;28;20333;-69
2022/12/14 07:43:50;;;;;;;21.77;10.67;;;;;;;3.82;42.71;100386.88;5130937;28;20764;-69
2022/12/14 07:46:21;;;;;;;24.90;11.43;;;;;;;3.45;42.46;100396.81;5113154;28;20352;-69
2022/12/14 07:48:49;;;;;;;25.43;10.67;;;;;;;3.50;42.48;100400.31;5111617;28;20280;-69
2022/12/14 07:51:19;;;;;;;26.50;11.20;;;;;;;3.37;42.97;100404.47;5129312;27;20300;-69
2022/12/14 07:53:45;;;;;;;27.77;11.40;;;;;;;4.04;41.50;100404.38;5111818;28;20333;-68
2022/12/14 07:56:13;;;;;;;23.13;10.47;;;;;;;3.89;41.60;100399.03;5109840;28;20659;-69
2022/12/14 07:58:39;;;;;;;26.47;10.83;;;;;;;4.12;40.68;100406.16;5109851;28;20034;-70
2022/12/14 08:01:14;;;;;;;22.17;10.53;;;;;;;4.29;42.20;100406.34;5112022;28;20304;-69
2022/12/14 08:03:42;;;;;;;22.60;10.73;;;;;;;3.98;41.83;100406.03;5112252;28;20448;-68
2022/12/14 08:06:09;;;;;;;23.30;10.77;;;;;;;3.99;41.93;100415.53;5110197;28;20345;-69
2022/12/14 08:08:35;;;;;;;24.27;10.87;;;;;;;4.20;42.20;100405.38;5111681;28;20387;-69
2022/12/14 08:11:01;;;;;;;22.77;10.93;;;;;;;3.97;41.76;100406.88;5129896;28;20762;-68
2022/12/14 08:13:27;;;;;;;25.87;11.53;;;;;;;3.57;42.75;100412.47;5112858;28;20050;-69
2022/12/14 08:15:52;;;;;;;22.60;10.17;;;;;;;3.69;42.31;100414.31;5110943;28;20787;-69
2022/12/14 08:18:18;;;;;;;23.70;11.33;;;;;;;3.74;43.05;100420.44;5125208;27;20042;-69
2022/12/14 08:20:48;;;;;;;23.93;10.43;;;;;;;3.66;42.83;100411.72;5109423;27;20114;-69
2022/12/14 08:23:13;;;;;;;22.20;9.87;;;;;;;3.72;42.69;100422.13;5130421;27;20535;-69
2022/12/14 08:25:39;;;;;;;24.10;11.60;;;;;;;3.30;42.66;100418.19;5132604;27;20300;-69
2022/12/14 08:28:04;;;;;;;26.43;11.43;;;;;;;3.36;43.73;100423.41;5111829;27;20027;-69
2022/12/14 08:30:30;;;;;;;24.70;11.50;;;;;;;3.55;43.39;100425.38;5113040;27;20022;-68
2022/12/14 08:32:55;;;;;;;29.27;12.30;;;;;;;3.58;43.13;100428.84;5129849;27;20023;-69
2022/12/14 08:35:20;;;;;;;28.63;12.77;;;;;;;3.64;42.81;100423.75;5116108;27;20034;-69
2022/12/14 08:37:46;;;;;;;27.47;12.77;;;;;;;3.59;43.27;100430.59;5115827;27;20034;-71
2022/12/14 08:40:11;;;;;;;25.13;11.70;;;;;;;3.38;42.82;100432.06;5113401;27;20027;-69
2022/12/14 08:42:36;;;;;;;26.37;11.53;;;;;;;3.43;43.70;100429.53;5114493;27;20083;-69
2022/12/14 08:45:02;;;;;;;29.70;13.63;;;;;;;4.00;42.24;100425.03;5134143;27;20023;-69
2022/12/14 08:47:27;;;;;;;28.83;13.70;;;;;;;3.70;42.72;100434.16;5115418;27;20031;-69
2022/12/14 08:49:53;;;;;;;30.00;12.50;;;;;;;3.85;43.38;100429.16;5111992;27;20023;-69
2022/12/14 08:52:20;;;;;;;30.77;14.17;;;;;;;3.78;43.30;100434.25;5114235;27;20212;-69
2022/12/14 08:54:45;;;;;;;30.87;12.40;;;;;;;3.62;43.22;100428.91;5115899;27;20038;-69
2022/12/14 08:57:11;;;;;;;24.70;11.03;;;;;;;3.78;43.14;100431.66;5115066;27;20284;-69
2022/12/14 08:59:36;;;;;;;25.10;11.73;;;;;;;4.03;42.36;100427.63;5113982;27;20039;-69
2022/12/14 09:02:01;;;;;;;26.33;12.20;;;;;;;3.98;42.46;100429.28;5134063;27;20051;-69
2022/12/14 09:04:27;;;;;;;29.23;11.30;;;;;;;3.75;43.26;100437.69;5115806;27;20385;-68
2022/12/14 09:06:52;;;;;;;22.67;10.87;;;;;;;3.44;44.22;100432.13;5114400;27;20041;-69
2022/12/14 09:09:18;;;;;;;25.33;11.60;;;;;;;3.94;42.36;100437.88;5130887;27;20476;-69
2022/12/14 09:11:44;;;;;;;24.43;12.43;;;;;;;3.60;43.17;100428.03;5107369;27;20095;-68
2022/12/14 09:14:09;;;;;;;27.77;11.67;;;;;;;4.22;43.09;100429.53;5109384;27;20039;-69
2022/12/14 09:16:35;;;;;;;26.33;10.43;;;;;;;3.62;42.66;100433.22;5111701;27;20292;-69
2022/12/14 09:19:00;;;;;;;21.57;10.27;;;;;;;3.71;43.01;100433.31;5113210;27;20027;-69
2022/12/14 09:21:26;;;;;;;25.33;10.03;;;;;;;4.03;43.37;100432.81;5106102;27;20538;-69
2022/12/14 09:23:51;;;;;;;31.03;11.20;;;;;;;4.08;41.85;100437.16;5113295;27;20087;-69
2022/12/14 09:26:20;;;;;;;31.50;11.47;;;;;;;4.38;41.64;100427.09;5115387;27;20023;-69
2022/12/14 09:28:51;;;;;;;23.70;11.53;;;;;;;3.99;42.69;100431.03;5130879;27;20543;-69
2022/12/14 09:31:19;;;;;;;26.40;11.20;;;;;;;4.20;41.73;100433.84;5113485;27;20341;-69
2022/12/14 09:33:45;;;;;;;25.37;10.30;;;;;;;4.93;40.44;100434.41;5114094;27;20336;-69
2022/12/14 09:36:13;;;;;;;18.50;9.40;;;;;;;5.16;39.94;100426.78;5113235;27;20288;-69
2022/12/14 09:38:39;;;;;;;25.60;9.87;;;;;;;4.91;39.93;100437.00;5114638;27;20105;-68
2022/12/14 09:41:17;;;;;;;20.37;10.27;;;;;;;5.03;41.09;100440.56;5111536;27;20350;-68
2022/12/14 09:43:51;;;;;;;24.37;10.07;;;;;;;4.95;40.86;100439.63;5111893;27;20297;-69
2022/12/14 09:46:48;;;;;;;22.07;9.73;;;;;;;4.98;40.75;100443.09;5114955;27;20399;-69
2022/12/14 09:49:30;;;;;;;20.60;8.93;;;;;;;4.67;40.93;100437.72;5108754;27;20371;-69
2022/12/14 09:51:59;;;;;;;20.83;9.65;;;;;;;5.16;40.43;100442.34;5109656;27;20787;-69
2022/12/14 09:54:28;;;;;;;23.37;9.60;;;;;;;5.15;39.74;100437.16;5128704;27;20071;-69
2022/12/14 09:56:59;;;;;;;19.80;9.53;;;;;;;5.21;40.57;100443.25;5128557;27;20379;-69
2022/12/14 09:59:28;;;;;;;19.30;9.90;;;;;;;5.16;40.48;100450.13;5130840;27;20287;-69
2022/12/14 10:02:09;;;;;;;19.63;9.40;;;;;;;5.34;39.80;100431.19;5113080;27;20648;-69
2022/12/14 10:04:56;;;;;;;27.43;10.63;;;;;;;5.44;39.94;100432.13;5107299;28;20277;-69
2022/12/14 10:07:40;;;;;;;21.17;8.83;;;;;;;5.51;39.47;100433.91;5109681;27;20398;-69
2022/12/14 10:10:58;;;;;;;21.63;9.60;;;;;;;5.42;40.37;100434.69;5108452;27;20322;-69
2022/12/14 10:13:49;;;;;;;23.80;11.27;;;;;;;5.07;40.08;100443.16;5048656;28;20286;-69
2022/12/14 10:16:39;;;;;;;27.13;12.20;;;;;;;5.26;39.92;100444.16;5105828;27;20317;-69
2022/12/14 10:19:31;;;;;;;27.37;11.97;;;;;;;5.04;40.96;100437.09;5123657;27;20287;-69
2022/12/14 10:22:01;;;;;;;31.00;13.70;;;;;;;5.60;39.34;100433.94;5124793;27;20284;-69
2022/12/14 10:24:35;;;;;;;34.57;14.13;;;;;;;6.33;38.69;100435.88;5112622;27;20272;-69
2022/12/14 10:27:01;;;;;;;39.37;16.50;;;;;;;6.13;39.28;100439.31;5128329;27;20308;-69
2022/12/14 10:29:35;;;;;;;32.30;15.20;;;;;;;6.61;37.66;100442.81;5108689;27;20287;-69
2022/12/14 10:32:11;;;;;;;27.90;13.07;;;;;;;6.51;37.71;100438.50;5105029;27;20359;-69
2022/12/14 10:34:42;;;;;;;23.23;11.17;;;;;;;7.10;36.79;100422.84;5108637;27;20046;-69
2022/12/14 10:37:34;;;;;;;22.60;9.70;;;;;;;6.33;38.11;100430.69;5131712;27;20034;-69
2022/12/14 10:40:15;;;;;;;20.87;10.63;;;;;;;6.21;39.22;100432.41;5108987;27;20026;-69
2022/12/14 10:43:09;;;;;;;24.97;10.47;;;;;;;5.74;40.27;100435.69;5112597;27;20031;-69
2022/12/14 10:46:04;;;;;;;20.87;9.70;;;;;;;4.92;41.33;100432.72;5111745;28;20080;-69
2022/12/14 10:48:36;;;;;;;22.90;11.17;;;;;;;5.25;41.11;100434.63;5121316;27;20057;-69
2022/12/14 10:51:43;;;;;;;20.25;9.30;;;;;;;4.79;41.36;100426.56;5107220;27;20034;-70
2022/12/14 10:54:21;;;;;;;20.80;9.47;;;;;;;5.42;40.65;100423.47;5100698;28;20100;-69
2022/12/14 10:56:48;;;;;;;21.67;10.67;;;;;;;5.39;40.13;100413.94;5093338;28;20019;-69
2022/12/14 10:59:17;;;;;;;20.67;9.27;;;;;;;6.87;37.89;100412.47;5111705;27;20034;-69
2022/12/14 11:01:45;;;;;;;25.27;10.70;;;;;;;6.79;37.72;100405.56;5131790;27;20043;-69
2022/12/14 11:04:30;;;;;;;20.73;10.27;;;;;;;7.08;36.91;100403.78;5113248;27;20534;-69
2022/12/14 11:07:03;;;;;;;22.27;10.77;;;;;;;6.59;38.21;100403.00;5131439;27;20272;-69
2022/12/14 11:09:28;;;;;;;25.42;10.30;;;;;;;6.58;37.41;100401.25;5112412;27;20447;-69
2022/12/14 11:12:04;;;;;;;28.10;10.73;;;;;;;6.58;38.58;100406.47;5112375;28;20075;-68
2022/12/14 11:14:31;;;;;;;23.93;11.20;;;;;;;5.64;40.64;100408.88;5113718;27;20027;-69
2022/12/14 11:16:56;;;;;;;20.90;9.73;;;;;;;5.47;41.20;100405.34;5131096;27;20296;-69
2022/12/14 11:19:24;;;;;;;22.13;11.03;;;;;;;6.03;40.19;100407.28;5109152;28;20301;-69
2022/12/14 11:22:03;;;;;;;22.20;11.17;;;;;;;6.20;39.17;100404.72;5113767;28;20497;-69
2022/12/14 11:24:29;;;;;;;20.23;10.07;;;;;;;5.95;39.39;100409.81;5130136;27;20288;-69
2022/12/14 11:26:59;;;;;;;22.10;10.63;;;;;;;5.51;40.07;100409.69;5130083;28;20357;-69
2022/12/14 11:29:31;;;;;;;24.80;10.07;;;;;;;5.22;40.33;100406.09;5111759;28;20023;-69
2022/12/14 11:31:57;;;;;;;23.00;10.43;;;;;;;5.47;41.23;100416.59;5113521;28;20114;-69
2022/12/14 11:34:41;;;;;;;24.77;11.60;;;;;;;5.81;40.09;100419.31;5129521;27;20288;-69
2022/12/14 11:37:26;;;;;;;23.67;9.73;;;;;;;5.53;41.54;100424.38;5103559;28;20795;-69
2022/12/14 11:39:58;;;;;;;20.37;9.30;;;;;;;6.73;39.15;100420.28;5113290;28;20640;-69
2022/12/14 11:42:24;;;;;;;26.00;11.73;;;;;;;6.26;40.11;100435.00;5111727;28;20320;-69
2022/12/14 11:44:50;;;;;;;38.23;15.57;;;;;;;6.83;39.71;100424.63;5131467;28;20133;-69
2022/12/14 11:47:22;;;;;;;25.80;12.37;;;;;;;6.84;39.80;100428.06;5130468;27;20046;-69
2022/12/14 11:49:50;;;;;;;22.93;11.07;;;;;;;5.41;41.94;100429.50;5113502;28;20038;-69
2022/12/14 11:52:38;;;;;;;23.93;11.07;;;;;;;5.72;41.29;100429.66;5111752;28;20034;-69